Time;durP1;ratioP1;P1;durP2;ratioP2;P2;SDS_P1;SDS_P2;PMS_P1;PMS_P2;Temp;Humidity;BMP_temperature;BMP_pressure;BME280_temperature;BME280_humidity;BME280_pressure;Samples;Min_cycle;Max_cycle;Signal;HPM_P1;HPM_P2
2021/07/09 00:01:44;;;;;;;20.00;16.80;;;;;;;22.90;66.52;98562.72;5092331;28;20081;-82
2021/07/09 00:04:10;;;;;;;20.77;16.23;;;;;;;22.85;66.41;98565.84;5096361;28;20027;-80
2021/07/09 00:06:36;;;;;;;18.95;15.40;;;;;;;22.79;66.49;98556.19;5081079;28;20127;-81
2021/07/09 00:09:04;;;;;;;17.98;15.77;;;;;;;22.79;66.78;98557.00;5096418;28;20028;-81
2021/07/09 00:11:31;;;;;;;18.53;15.57;;;;;;;22.74;66.46;98557.31;5097369;28;20026;-80
2021/07/09 00:13:56;;;;;;;17.30;14.70;;;;;;;22.70;66.40;98553.66;5097710;28;20028;-80
2021/07/09 00:16:22;;;;;;;20.35;15.63;;;;;;;22.70;66.20;98565.66;5098973;28;20089;-80
2021/07/09 00:18:48;;;;;;;21.48;15.98;;;;;;;22.72;66.61;98568.88;5098106;28;20031;-79
2021/07/09 00:21:15;;;;;;;19.02;14.23;;;;;;;22.76;66.49;98568.91;5086304;28;20051;-80
2021/07/09 00:23:41;;;;;;;16.35;13.88;;;;;;;22.75;66.58;98562.53;5099907;28;20406;-80
2021/07/09 00:26:07;;;;;;;14.68;11.80;;;;;;;22.76;66.41;98560.53;5099603;28;20023;-80
2021/07/09 00:28:33;;;;;;;12.75;11.25;;;;;;;22.77;66.20;98559.34;5096990;28;20055;-81
2021/07/09 00:30:58;;;;;;;11.52;10.23;;;;;;;22.76;66.42;98554.94;5095610;28;20028;-82
2021/07/09 00:33:24;;;;;;;10.95;9.48;;;;;;;22.68;66.49;98550.41;5097178;28;20088;-82
2021/07/09 00:35:50;;;;;;;12.50;9.60;;;;;;;22.60;66.15;98541.13;5099696;28;20064;-82
2021/07/09 00:38:15;;;;;;;11.57;9.88;;;;;;;22.55;66.14;98538.66;5099878;28;20039;-81
2021/07/09 00:40:41;;;;;;;12.85;10.20;;;;;;;22.51;66.30;98530.22;5095576;28;20023;-81
2021/07/09 00:43:07;;;;;;;12.25;10.27;;;;;;;22.48;66.26;98524.56;5095451;28;20384;-81
2021/07/09 00:45:32;;;;;;;14.48;10.90;;;;;;;22.47;66.13;98531.31;5097771;28;20491;-82
2021/07/09 00:47:57;;;;;;;14.63;11.02;;;;;;;22.49;66.15;98524.19;5095474;28;20039;-81
2021/07/09 00:50:23;;;;;;;11.95;9.80;;;;;;;22.53;66.31;98533.44;5097104;28;20050;-82
2021/07/09 00:52:48;;;;;;;13.63;10.20;;;;;;;22.57;66.34;98520.34;5099313;28;20597;-81
2021/07/09 00:55:15;;;;;;;13.50;10.13;;;;;;;22.58;66.17;98518.34;5093517;28;20024;-81
2021/07/09 00:57:44;;;;;;;10.75;9.45;;;;;;;22.64;66.20;98510.41;5098651;28;20058;-81
2021/07/09 01:00:12;;;;;;;12.63;9.23;;;;;;;22.65;66.04;98501.69;5093326;28;20480;-82
2021/07/09 01:02:37;;;;;;;11.10;8.75;;;;;;;22.65;65.90;98501.69;5093695;28;20016;-81
2021/07/09 01:05:05;;;;;;;11.13;8.43;;;;;;;22.65;65.95;98487.69;5097073;28;20054;-81
2021/07/09 01:07:30;;;;;;;9.68;8.35;;;;;;;22.65;65.74;98489.69;5096215;28;20086;-83
2021/07/09 01:09:56;;;;;;;10.15;8.23;;;;;;;22.62;65.85;98480.06;5098081;28;20124;-82
2021/07/09 01:12:21;;;;;;;10.13;8.98;;;;;;;22.60;65.70;98486.06;5097869;28;20028;-82
2021/07/09 01:14:47;;;;;;;10.05;7.90;;;;;;;22.57;65.66;98474.78;5098384;28;20022;-82
2021/07/09 01:17:13;;;;;;;10.85;7.72;;;;;;;22.55;65.60;98457.59;5094540;28;20028;-82
2021/07/09 01:19:39;;;;;;;12.10;7.80;;;;;;;22.56;65.56;98459.22;5098935;28;20464;-81
2021/07/09 01:22:06;;;;;;;10.70;8.00;;;;;;;22.56;65.58;98465.63;5095302;28;20472;-82
2021/07/09 01:24:32;;;;;;;9.88;7.32;;;;;;;22.57;65.74;98464.44;5096576;28;20024;-81
2021/07/09 01:26:58;;;;;;;8.80;7.25;;;;;;;22.57;65.58;98472.00;5095214;28;20065;-81
2021/07/09 01:29:23;;;;;;;7.65;6.85;;;;;;;22.58;65.50;98466.06;5095188;28;20032;-81
2021/07/09 01:31:49;;;;;;;8.43;7.28;;;;;;;22.57;65.41;98456.06;5096758;28;20019;-82
2021/07/09 01:34:14;;;;;;;8.52;7.47;;;;;;;22.58;65.38;98449.28;5097304;28;20020;-81
2021/07/09 01:36:40;;;;;;;9.02;8.05;;;;;;;22.58;65.34;98448.47;5095080;28;20038;-82
2021/07/09 01:39:05;;;;;;;10.82;7.45;;;;;;;22.56;65.14;98437.69;5094713;28;20020;-82
2021/07/09 01:41:30;;;;;;;10.30;7.95;;;;;;;22.52;65.21;98436.00;5095509;28;20039;-81
2021/07/09 01:43:56;;;;;;;10.25;8.38;;;;;;;22.48;65.29;98432.34;5096049;28;20418;-81
2021/07/09 01:46:22;;;;;;;11.80;9.02;;;;;;;22.43;65.07;98439.84;5096032;28;20111;-81
2021/07/09 01:48:47;;;;;;;9.77;8.38;;;;;;;22.40;65.27;98443.41;5096352;28;20089;-81
2021/07/09 01:51:12;;;;;;;11.05;9.68;;;;;;;22.41;65.32;98441.41;5096582;28;20024;-81
2021/07/09 01:53:38;;;;;;;13.02;9.70;;;;;;;22.36;65.33;98436.13;5078806;28;20024;-81
2021/07/09 01:56:03;;;;;;;11.23;9.98;;;;;;;22.32;65.12;98433.31;5097806;28;20578;-81
2021/07/09 01:58:29;;;;;;;10.88;9.45;;;;;;;22.31;65.18;98438.06;5097165;28;20095;-81
2021/07/09 02:00:54;;;;;;;12.00;9.40;;;;;;;22.34;65.39;98438.50;5097176;28;20399;-82
2021/07/09 02:03:20;;;;;;;14.60;9.85;;;;;;;22.30;65.26;98436.44;5098229;28;20410;-81
2021/07/09 02:05:45;;;;;;;11.65;9.82;;;;;;;22.34;65.18;98435.69;5096688;28;20130;-82
2021/07/09 02:08:11;;;;;;;11.85;9.75;;;;;;;22.31;65.18;98437.28;5090795;28;20024;-82
2021/07/09 02:10:41;;;;;;;15.43;10.52;;;;;;;22.31;65.12;98440.84;5099025;28;20034;-81
2021/07/09 02:13:07;;;;;;;13.10;10.52;;;;;;;22.31;65.32;98429.69;5095785;28;20023;-81
2021/07/09 02:15:38;;;;;;;13.48;10.15;;;;;;;22.32;65.28;98430.50;5110869;28;20518;-81
2021/07/09 02:18:05;;;;;;;17.25;11.45;;;;;;;22.33;65.26;98425.72;5092504;28;20092;-82
2021/07/09 02:20:32;;;;;;;13.52;10.82;;;;;;;22.32;65.40;98430.50;5098263;28;20396;-82
2021/07/09 02:23:00;;;;;;;15.35;12.23;;;;;;;22.30;65.24;98421.69;5101601;28;20019;-82
2021/07/09 02:25:25;;;;;;;17.77;13.02;;;;;;;22.28;65.15;98412.88;5110398;28;20488;-82
2021/07/09 02:27:53;;;;;;;16.38;12.13;;;;;;;22.26;65.30;98407.66;5110320;28;20027;-82
2021/07/09 02:30:19;;;;;;;15.90;13.02;;;;;;;22.22;65.47;98398.41;5105684;28;20028;-81
2021/07/09 02:32:46;;;;;;;17.60;12.75;;;;;;;22.17;65.23;98398.75;5088933;28;20039;-82
2021/07/09 02:35:14;;;;;;;17.08;12.98;;;;;;;22.15;65.50;98390.75;5090383;28;20734;-82
2021/07/09 02:37:42;;;;;;;18.85;14.23;;;;;;;22.16;65.55;98386.75;5093291;28;20134;-82
2021/07/09 02:40:12;;;;;;;18.80;14.32;;;;;;;22.14;65.65;98394.72;5090424;28;20031;-82
2021/07/09 02:42:38;;;;;;;17.80;14.20;;;;;;;22.14;65.69;98394.72;5089733;28;20113;-81
2021/07/09 02:45:04;;;;;;;16.98;14.90;;;;;;;22.14;65.45;98394.72;5089898;28;20035;-81
2021/07/09 02:47:29;;;;;;;18.15;15.07;;;;;;;22.12;65.83;98397.06;5096908;28;20012;-81
2021/07/09 02:49:55;;;;;;;20.13;15.60;;;;;;;22.10;65.73;98399.44;5110168;28;20503;-82
2021/07/09 02:52:20;;;;;;;19.63;15.45;;;;;;;22.09;65.89;98399.81;5108839;28;20480;-81
2021/07/09 02:54:45;;;;;;;23.45;17.42;;;;;;;22.05;65.93;98404.53;5076737;28;20028;-82
2021/07/09 02:57:11;;;;;;;21.15;17.10;;;;;;;22.06;65.92;98397.78;5089116;28;20020;-82
2021/07/09 02:59:36;;;;;;;22.08;16.67;;;;;;;22.07;66.09;98411.34;5089820;28;20047;-82
2021/07/09 03:02:02;;;;;;;21.30;16.88;;;;;;;22.11;66.09;98405.84;5089070;28;20112;-82
2021/07/09 03:04:27;;;;;;;24.60;17.40;;;;;;;22.15;66.25;98420.66;5089563;28;20105;-82
2021/07/09 03:06:52;;;;;;;24.55;18.70;;;;;;;22.15;66.14;98418.66;5089339;28;20028;-82
2021/07/09 03:09:18;;;;;;;22.95;18.05;;;;;;;22.19;66.29;98429.09;5089967;28;20016;-82
2021/07/09 03:11:43;;;;;;;23.42;17.95;;;;;;;22.21;66.26;98424.72;5088829;28;20024;-82
2021/07/09 03:14:09;;;;;;;24.63;19.10;;;;;;;22.23;66.21;98427.16;5091797;28;20422;-82
2021/07/09 03:16:35;;;;;;;24.45;18.25;;;;;;;22.27;66.40;98416.84;5101092;28;20525;-82
2021/07/09 03:19:01;;;;;;;21.05;17.30;;;;;;;22.30;66.32;98419.69;5109365;28;20934;-82
2021/07/09 03:21:26;;;;;;;22.00;18.23;;;;;;;22.34;66.45;98424.53;5106380;28;20044;-82
2021/07/09 03:23:52;;;;;;;27.50;18.25;;;;;;;22.36;66.28;98419.38;5088997;28;20369;-82
2021/07/09 03:26:17;;;;;;;22.95;18.48;;;;;;;22.39;66.43;98421.41;5100801;28;20039;-82
2021/07/09 03:28:43;;;;;;;24.17;18.80;;;;;;;22.39;66.36;98419.44;5088835;28;20016;-82
2021/07/09 03:31:08;;;;;;;24.60;19.38;;;;;;;22.41;66.29;98417.06;5088954;28;20039;-83
2021/07/09 03:33:33;;;;;;;25.48;18.95;;;;;;;22.41;66.43;98411.50;5088593;28;20030;-82
2021/07/09 03:35:59;;;;;;;24.58;19.50;;;;;;;22.43;66.69;98413.88;5089177;28;20051;-82
2021/07/09 03:38:24;;;;;;;23.73;20.40;;;;;;;22.43;66.66;98406.31;5106324;28;20020;-82
2021/07/09 03:40:49;;;;;;;25.15;19.75;;;;;;;22.49;66.52;98411.59;5090362;28;20030;-82
2021/07/09 03:43:15;;;;;;;23.40;19.92;;;;;;;22.53;66.50;98404.06;5108584;28;20418;-82
2021/07/09 03:45:40;;;;;;;22.15;18.35;;;;;;;22.56;66.60;98406.94;5102875;28;20030;-81
2021/07/09 03:48:07;;;;;;;27.30;20.15;;;;;;;22.60;66.47;98410.59;5092960;28;20024;-82
2021/07/09 03:50:33;;;;;;;25.20;20.30;;;;;;;22.65;66.65;98419.78;5093204;28;20126;-83
2021/07/09 03:52:58;;;;;;;24.88;20.33;;;;;;;22.60;66.52;98418.16;5092114;28;20110;-82
2021/07/09 03:55:24;;;;;;;21.45;19.17;;;;;;;22.64;66.70;98426.56;5092865;28;20023;-83
2021/07/09 03:57:49;;;;;;;24.73;19.70;;;;;;;22.63;66.68;98422.16;5092504;28;20012;-82
2021/07/09 04:00:16;;;;;;;25.67;19.73;;;;;;;22.65;66.31;98409.44;5092768;28;20365;-82
2021/07/09 04:02:41;;;;;;;25.23;20.40;;;;;;;22.68;66.95;98416.25;5092264;28;20053;-81
2021/07/09 04:05:08;;;;;;;23.13;20.08;;;;;;;22.74;66.99;98417.53;5093913;28;20083;-81
2021/07/09 04:07:33;;;;;;;26.70;20.70;;;;;;;22.80;66.98;98418.81;5100298;28;20090;-81
2021/07/09 04:09:58;;;;;;;24.50;21.02;;;;;;;22.85;66.92;98426.03;5092905;28;20075;-81
2021/07/09 04:12:24;;;;;;;27.50;21.88;;;;;;;22.89;66.99;98427.72;5092426;28;20447;-81
2021/07/09 04:14:49;;;;;;;27.55;23.42;;;;;;;22.95;66.95;98439.38;5093084;28;20048;-80
2021/07/09 04:17:14;;;;;;;32.83;23.83;;;;;;;23.01;67.03;98493.00;5092020;28;20487;-80
2021/07/09 04:19:40;;;;;;;22.98;18.27;;;;;;;22.97;68.45;98539.69;5107723;28;20031;-82
2021/07/09 04:22:06;;;;;;;20.67;14.57;;;;;;;22.59;67.24;98529.16;5096896;28;20039;-83
2021/07/09 04:24:31;;;;;;;20.15;15.55;;;;;;;22.34;67.32;98456.06;5092476;28;20032;-83
2021/07/09 04:26:57;;;;;;;19.42;15.65;;;;;;;22.20;67.22;98517.28;5097426;28;20648;-83
2021/07/09 04:29:24;;;;;;;17.17;13.70;;;;;;;22.13;67.46;98576.66;5092552;28;20024;-84
2021/07/09 04:31:49;;;;;;;14.98;12.55;;;;;;;21.96;68.36;98555.59;5100614;28;20414;-83
2021/07/09 04:34:14;;;;;;;18.92;14.05;;;;;;;21.74;69.35;98537.63;5104537;28;20020;-85
2021/07/09 04:36:41;;;;;;;24.02;16.70;;;;;;;21.63;68.78;98582.06;5092267;28;20699;-84
2021/07/09 04:39:08;;;;;;;20.38;16.60;;;;;;;21.58;69.68;98587.94;5092107;28;20016;-84
2021/07/09 04:41:33;;;;;;;22.02;16.55;;;;;;;21.50;69.22;98570.22;5096579;28;20475;-84
2021/07/09 04:43:59;;;;;;;19.23;14.95;;;;;;;21.48;69.96;98578.13;5107298;28;20036;-84
2021/07/09 04:46:24;;;;;;;22.38;16.35;;;;;;;21.43;69.80;98579.25;5105318;28;20113;-84
2021/07/09 04:48:50;;;;;;;20.17;15.43;;;;;;;21.40;70.04;98558.44;5106037;28;20027;-85
2021/07/09 04:51:15;;;;;;;28.45;18.67;;;;;;;21.45;70.07;98539.81;5090910;28;20024;-84
2021/07/09 04:53:40;;;;;;;42.35;23.30;;;;;;;21.46;69.67;98558.97;5092633;28;20128;-83
2021/07/09 04:56:06;;;;;;;20.98;14.93;;;;;;;21.52;69.75;98584.59;5109892;28;20491;-84
2021/07/09 04:58:31;;;;;;;17.58;13.43;;;;;;;21.57;69.74;98587.09;5111430;28;20528;-83
2021/07/09 05:00:56;;;;;;;12.02;10.43;;;;;;;21.63;70.31;98546.59;5103946;28;20023;-82
2021/07/09 05:03:23;;;;;;;14.18;9.30;;;;;;;21.66;69.81;98556.19;5091843;28;20118;-82
2021/07/09 05:05:48;;;;;;;9.00;7.53;;;;;;;21.75;69.66;98587.50;5091460;28;20040;-83
2021/07/09 05:08:13;;;;;;;13.32;9.27;;;;;;;21.79;69.00;98571.63;5083450;28;20088;-83
2021/07/09 05:10:42;;;;;;;16.65;9.10;;;;;;;21.87;68.54;98569.78;5103006;28;20036;-83
2021/07/09 05:13:08;;;;;;;8.57;6.80;;;;;;;21.92;68.04;98563.09;5097803;28;20507;-84
2021/07/09 05:15:34;;;;;;;11.70;6.57;;;;;;;21.97;67.62;98571.16;5102057;28;20035;-84
2021/07/09 05:18:00;;;;;;;8.48;5.80;;;;;;;22.01;67.31;98572.00;5091270;28;20027;-83
2021/07/09 05:20:26;;;;;;;6.13;4.47;;;;;;;22.07;66.64;98564.16;5103706;28;20024;-84
2021/07/09 05:22:52;;;;;;;5.10;4.57;;;;;;;22.14;66.22;98553.13;5099348;28;20032;-83
2021/07/09 05:25:17;;;;;;;8.38;5.22;;;;;;;22.16;65.66;98571.09;5098469;28;20507;-83
2021/07/09 05:27:42;;;;;;;9.18;4.70;;;;;;;22.19;65.33;98552.81;5104069;28;20500;-83
2021/07/09 05:30:08;;;;;;;5.82;4.72;;;;;;;22.25;65.08;98545.72;5092905;28;20059;-83
2021/07/09 05:32:36;;;;;;;8.27;4.10;;;;;;;22.31;64.97;98532.25;5096552;28;20049;-83
2021/07/09 05:35:02;;;;;;;7.53;4.05;;;;;;;22.36;64.99;98531.94;5102755;28;20028;-84
2021/07/09 05:37:28;;;;;;;6.35;3.75;;;;;;;22.41;64.25;98517.66;5096847;28;20024;-83
2021/07/09 05:39:54;;;;;;;4.78;3.65;;;;;;;22.45;64.30;98507.34;5111302;28;20039;-83
2021/07/09 05:42:19;;;;;;;8.60;3.35;;;;;;;22.55;63.94;98505.09;5110866;28;20019;-84
2021/07/09 05:44:44;;;;;;;5.10;3.40;;;;;;;22.58;63.48;98498.78;5110803;28;20058;-84
2021/07/09 05:47:12;;;;;;;5.57;3.70;;;;;;;22.63;63.35;98500.41;5100545;28;20020;-84
2021/07/09 05:49:38;;;;;;;5.10;2.70;;;;;;;22.66;63.18;98488.50;5093746;28;20028;-84
2021/07/09 06:45:04;;;;;;;8.13;2.50;;;;;;;23.60;61.19;98408.53;5490721;23;20052;-75
2021/07/09 06:47:30;;;;;;;7.55;2.20;;;;;;;23.70;61.18;98387.41;4932021;28;20063;-75
2021/07/09 06:49:55;;;;;;;15.63;2.75;;;;;;;23.79;61.15;98388.72;4931907;29;20008;-76
2021/07/09 06:52:21;;;;;;;5.72;2.10;;;;;;;23.85;60.96;98372.34;4931497;29;20095;-76
2021/07/09 06:54:46;;;;;;;5.15;1.50;;;;;;;23.89;60.73;98373.19;4931334;29;20040;-77
2021/07/09 06:57:11;;;;;;;3.75;1.40;;;;;;;23.92;60.63;98369.59;4931182;29;20027;-74
2021/07/09 06:59:37;;;;;;;2.47;1.75;;;;;;;23.98;60.43;98378.47;4931889;29;20016;-76
2021/07/09 07:02:02;;;;;;;4.28;1.70;;;;;;;24.04;60.39;98371.31;4933068;29;20062;-77
2021/07/09 07:04:28;;;;;;;4.15;1.58;;;;;;;24.12;60.50;98372.16;4931878;29;20075;-76
2021/07/09 07:06:53;;;;;;;3.83;1.48;;;;;;;24.18;60.46;98372.63;4931037;29;20036;-77
2021/07/09 07:09:22;;;;;;;4.80;1.70;;;;;;;24.24;60.27;98373.88;4934869;28;20023;-78
2021/07/09 07:11:48;;;;;;;6.68;1.80;;;;;;;24.30;59.79;98380.69;4912449;29;20095;-78
2021/07/09 07:14:13;;;;;;;7.18;1.80;;;;;;;24.33;59.66;98370.72;4929873;29;20134;-78
2021/07/09 07:16:38;;;;;;;4.70;1.83;;;;;;;24.37;59.78;98366.72;4930922;29;20078;-79
2021/07/09 07:19:04;;;;;;;10.93;1.98;;;;;;;24.43;59.14;98369.16;4930826;29;20032;-81
2021/07/09 07:21:29;;;;;;;3.78;1.80;;;;;;;24.51;59.50;98373.59;4932045;29;20030;-81
2021/07/09 07:23:55;;;;;;;4.68;1.70;;;;;;;24.57;59.47;98376.81;4937366;29;20047;-79
2021/07/09 07:26:20;;;;;;;4.47;1.70;;;;;;;24.62;59.25;98374.47;4932313;29;20107;-80
2021/07/09 07:28:45;;;;;;;4.10;1.30;;;;;;;24.67;59.06;98368.47;4946934;29;20024;-77
2021/07/09 07:31:12;;;;;;;5.45;1.80;;;;;;;24.70;59.25;98366.88;4929754;29;20035;-80
2021/07/09 07:33:39;;;;;;;4.40;1.80;;;;;;;24.76;58.93;98361.72;4929896;29;20146;-80
2021/07/09 07:36:04;;;;;;;3.13;1.55;;;;;;;24.79;58.90;98361.75;4929477;29;20031;-81
2021/07/09 07:38:30;;;;;;;3.50;1.60;;;;;;;24.86;58.63;98371.41;4929838;29;20112;-78
2021/07/09 07:40:56;;;;;;;3.60;1.60;;;;;;;24.93;58.69;98368.59;4930011;29;20032;-78
2021/07/09 07:43:21;;;;;;;4.97;1.60;;;;;;;25.04;58.91;98382.69;4931730;29;20079;-79
2021/07/09 07:45:47;;;;;;;6.47;2.00;;;;;;;25.09;58.44;98382.25;4933051;29;20131;-79
2021/07/09 07:48:12;;;;;;;10.40;3.00;;;;;;;25.14;58.15;98379.06;4942239;29;20057;-80
2021/07/09 07:50:38;;;;;;;28.52;4.32;;;;;;;25.20;58.21;98371.09;4930736;29;20095;-78
2021/07/09 07:53:04;;;;;;;6.22;2.30;;;;;;;25.25;58.09;98370.72;4930054;29;20086;-76
2021/07/09 07:55:29;;;;;;;8.40;2.53;;;;;;;25.33;57.98;98366.69;4940772;29;20029;-78
2021/07/09 07:57:55;;;;;;;4.57;2.25;;;;;;;25.39;57.94;98381.94;4933130;29;20055;-78
2021/07/09 08:00:21;;;;;;;5.93;2.25;;;;;;;25.45;57.31;98395.63;4914071;29;20115;-80
2021/07/09 08:02:47;;;;;;;5.78;2.53;;;;;;;25.45;57.32;98392.81;4940761;29;20040;-80
2021/07/09 08:05:12;;;;;;;6.38;3.10;;;;;;;25.47;57.20;98387.59;4931748;29;20531;-79
2021/07/09 08:07:39;;;;;;;5.15;2.65;;;;;;;25.52;57.34;98382.38;4932148;29;20100;-79
2021/07/09 08:10:05;;;;;;;5.40;3.55;;;;;;;25.59;56.92;98383.59;4916511;29;20100;-80
2021/07/09 08:12:30;;;;;;;10.25;3.42;;;;;;;25.64;57.22;98384.03;4940633;29;20036;-78
2021/07/09 08:14:56;;;;;;;5.28;3.17;;;;;;;25.68;57.01;98367.94;4934941;29;20087;-79
2021/07/09 08:17:21;;;;;;;6.35;3.50;;;;;;;25.75;56.17;98377.59;4930998;29;20035;-79
2021/07/09 08:19:46;;;;;;;6.78;3.70;;;;;;;25.78;56.55;98363.56;4931413;29;20051;-78
2021/07/09 08:22:12;;;;;;;10.73;4.65;;;;;;;25.85;56.31;98383.22;4941713;29;20035;-80
2021/07/09 08:24:37;;;;;;;5.47;3.58;;;;;;;25.86;56.37;98392.44;4950139;29;20082;-81
2021/07/09 08:27:03;;;;;;;6.43;3.50;;;;;;;25.89;56.03;98399.25;4938756;29;20055;-78
2021/07/09 08:29:28;;;;;;;7.38;3.97;;;;;;;25.91;55.89;98399.66;4930909;29;20440;-79
2021/07/09 08:31:54;;;;;;;7.15;4.30;;;;;;;25.88;56.20;98401.28;4931611;29;20066;-79
2021/07/09 08:34:20;;;;;;;8.55;4.93;;;;;;;25.93;56.18;98408.47;4935251;29;20061;-81
2021/07/09 08:36:45;;;;;;;10.48;6.05;;;;;;;25.96;56.34;98414.13;4933387;29;20046;-78
2021/07/09 08:39:15;;;;;;;12.27;6.93;;;;;;;26.05;56.27;98410.91;4934053;29;20059;-78
2021/07/09 08:41:41;;;;;;;10.07;6.63;;;;;;;26.11;56.37;98414.91;4933177;28;20043;-81
2021/07/09 08:44:06;;;;;;;9.13;6.63;;;;;;;26.18;55.15;98411.31;4934297;29;20027;-82
2021/07/09 08:46:33;;;;;;;9.77;7.35;;;;;;;26.18;55.52;98411.31;4932081;29;20087;-78
2021/07/09 08:48:59;;;;;;;11.90;7.70;;;;;;;26.21;55.54;98415.34;4935107;28;20054;-78
2021/07/09 08:51:24;;;;;;;14.05;10.10;;;;;;;26.30;55.65;98407.28;4933040;29;20039;-79
2021/07/09 08:53:49;;;;;;;15.60;10.23;;;;;;;26.36;56.21;98411.28;4932657;29;20067;-78
2021/07/09 08:56:15;;;;;;;18.58;13.13;;;;;;;26.47;55.88;98410.47;4931741;29;20072;-79
2021/07/09 08:58:41;;;;;;;18.02;12.98;;;;;;;26.57;56.10;98423.72;4932862;29;20074;-80
2021/07/09 09:01:07;;;;;;;18.40;13.90;;;;;;;26.68;56.22;98423.66;4931768;29;20407;-77
2021/07/09 09:03:33;;;;;;;18.60;14.20;;;;;;;26.74;55.94;98430.50;4929716;29;20035;-78
2021/07/09 09:06:01;;;;;;;16.02;13.38;;;;;;;26.82;56.04;98426.47;4933374;29;20036;-81
2021/07/09 09:08:29;;;;;;;17.43;13.33;;;;;;;26.93;55.92;98423.63;4943236;29;20020;-78
2021/07/09 09:10:58;;;;;;;18.15;13.57;;;;;;;27.01;56.18;98427.19;4931506;29;20028;-80
2021/07/09 09:13:27;;;;;;;19.38;14.68;;;;;;;27.11;56.09;98436.78;4929467;29;20484;-79
2021/07/09 09:16:11;;;;;;;17.67;13.50;;;;;;;27.21;55.95;98430.31;4937005;29;20035;-78
2021/07/09 09:18:45;;;;;;;16.67;13.05;;;;;;;27.29;55.65;98425.47;4916331;29;20019;-79
2021/07/09 09:21:12;;;;;;;19.92;13.20;;;;;;;27.37;55.53;98420.59;4934845;29;21414;-78
2021/07/09 09:23:51;;;;;;;20.95;12.93;;;;;;;27.42;55.55;98417.34;4936644;29;20031;-78
2021/07/09 09:26:50;;;;;;;17.20;13.05;;;;;;;27.48;55.29;98429.81;4915642;29;20031;-78
2021/07/09 09:29:34;;;;;;;18.35;13.10;;;;;;;27.53;55.29;98422.94;4938364;29;20024;-77
2021/07/09 09:32:03;;;;;;;26.88;15.93;;;;;;;27.58;55.21;98414.06;4932339;29;20036;-77
2021/07/09 09:34:49;;;;;;;23.88;13.95;;;;;;;27.59;54.83;98408.00;4941122;29;20123;-79
2021/07/09 09:37:19;;;;;;;18.55;13.27;;;;;;;27.54;54.59;98399.97;4938289;29;20562;-78
2021/07/09 09:39:47;;;;;;;17.90;13.70;;;;;;;27.52;54.68;98387.53;4933706;29;20027;-77
2021/07/09 09:42:21;;;;;;;19.40;13.27;;;;;;;27.51;54.85;98385.94;4931189;28;20028;-78
2021/07/09 09:44:49;;;;;;;17.23;14.27;;;;;;;27.43;54.96;98374.69;4931988;29;20452;-81
2021/07/09 09:47:21;;;;;;;20.92;13.77;;;;;;;27.40;55.57;98369.88;4931466;29;20586;-80
2021/07/09 09:49:52;;;;;;;18.80;12.45;;;;;;;27.36;55.50;98355.00;4931634;29;20028;-77
2021/07/09 09:52:31;;;;;;;18.25;13.45;;;;;;;27.32;55.72;98340.97;4931796;29;20047;-80
2021/07/09 09:54:57;;;;;;;21.67;14.27;;;;;;;27.33;55.97;98341.75;4943793;29;20035;-81
2021/07/09 09:57:22;;;;;;;15.93;14.18;;;;;;;27.36;56.12;98340.16;4931893;29;20039;-79
2021/07/09 09:59:51;;;;;;;18.60;14.35;;;;;;;27.37;56.36;98339.72;4931590;29;20024;-78
2021/07/09 10:02:16;;;;;;;19.17;15.10;;;;;;;27.43;56.44;98340.09;4935859;29;20119;-77
2021/07/09 10:04:41;;;;;;;18.13;15.00;;;;;;;27.48;56.40;98342.50;4931531;29;20139;-79
2021/07/09 10:07:08;;;;;;;20.95;15.52;;;;;;;27.51;56.35;98338.06;4934750;29;20039;-79
2021/07/09 10:09:34;;;;;;;22.80;15.73;;;;;;;27.57;56.56;98344.84;4931606;29;20103;-79
2021/07/09 10:12:03;;;;;;;24.27;16.88;;;;;;;27.60;56.38;98324.31;4935995;29;20039;-79
2021/07/09 10:14:32;;;;;;;18.35;14.88;;;;;;;27.67;56.54;98324.25;4942188;29;20091;-79
2021/07/09 10:17:00;;;;;;;22.58;16.38;;;;;;;27.75;56.55;98331.41;4930690;29;20031;-80
2021/07/09 10:19:36;;;;;;;21.23;16.63;;;;;;;27.82;56.28;98327.75;4934776;29;20030;-81
2021/07/09 10:22:03;;;;;;;21.48;15.55;;;;;;;27.93;56.69;98319.97;4933394;29;20449;-79
2021/07/09 10:24:29;;;;;;;21.17;14.85;;;;;;;27.99;56.21;98309.06;4952531;29;20023;-79
2021/07/09 10:26:55;;;;;;;17.33;13.75;;;;;;;28.11;56.12;98313.34;4942776;29;20022;-82
2021/07/09 10:29:33;;;;;;;17.33;12.68;;;;;;;28.17;56.00;98319.34;4945655;29;20032;-79
2021/07/09 10:32:00;;;;;;;19.17;12.32;;;;;;;28.18;55.20;98320.97;4931698;29;20114;-79
2021/07/09 10:34:30;;;;;;;16.05;12.98;;;;;;;28.15;55.05;98325.44;4912910;29;20562;-80
2021/07/09 10:37:00;;;;;;;17.25;11.82;;;;;;;28.16;54.91;98327.03;4935752;29;20159;-80
2021/07/09 10:39:32;;;;;;;15.82;11.85;;;;;;;28.21;54.55;98322.94;4934196;29;20464;-81
2021/07/09 10:42:13;;;;;;;16.48;12.05;;;;;;;28.28;54.67;98325.69;4930260;29;20480;-80
2021/07/09 10:45:05;;;;;;;15.02;12.48;;;;;;;28.37;54.80;98334.44;4931678;29;20043;-80
2021/07/09 10:48:02;;;;;;;18.95;12.70;;;;;;;28.47;54.61;98335.53;4941987;29;20047;-79
2021/07/09 10:50:46;;;;;;;16.90;12.88;;;;;;;28.50;54.57;98343.16;4924211;29;20050;-79
2021/07/09 10:53:11;;;;;;;18.20;13.55;;;;;;;28.55;54.31;98347.53;4937632;28;20047;-79
2021/07/09 10:55:57;;;;;;;18.40;13.10;;;;;;;28.64;53.38;98336.53;4938673;29;20023;-79
2021/07/09 10:58:32;;;;;;;17.52;13.18;;;;;;;28.58;53.42;98332.59;4950205;29;20047;-80
2021/07/09 11:01:12;;;;;;;16.77;13.73;;;;;;;28.60;53.31;98343.47;4953961;29;20079;-82
2021/07/09 11:03:41;;;;;;;20.17;12.85;;;;;;;28.68;53.48;98342.94;4918608;29;20032;-79
2021/07/09 11:06:13;;;;;;;17.55;13.35;;;;;;;28.77;53.17;98361.41;4939755;29;20054;-79
2021/07/09 11:08:41;;;;;;;14.95;12.50;;;;;;;28.84;53.05;98369.00;4937723;29;20082;-78
2021/07/09 11:11:13;;;;;;;23.40;14.25;;;;;;;28.86;52.81;98370.19;4944067;29;20027;-77
2021/07/09 11:13:41;;;;;;;15.90;13.63;;;;;;;28.86;52.78;98375.00;4932775;29;20024;-75
2021/07/09 11:16:25;;;;;;;19.35;13.93;;;;;;;28.89;52.89;98380.63;4931634;29;20427;-75
2021/07/09 11:19:03;;;;;;;19.40;14.52;;;;;;;28.93;52.50;98384.22;4927943;29;20059;-78
2021/07/09 11:21:32;;;;;;;22.85;14.77;;;;;;;28.96;52.33;98388.19;4931442;29;20059;-80
2021/07/09 11:24:04;;;;;;;18.58;15.18;;;;;;;28.93;52.51;98397.50;4940137;29;20027;-78
2021/07/09 11:26:32;;;;;;;18.25;16.00;;;;;;;28.91;52.61;98399.94;4935526;29;20404;-77
2021/07/09 11:28:58;;;;;;;17.35;15.45;;;;;;;28.86;52.65;98404.06;4929552;29;20049;-76
2021/07/09 11:31:30;;;;;;;22.27;16.42;;;;;;;28.79;52.27;98409.78;4929294;29;20107;-77
2021/07/09 11:34:07;;;;;;;20.95;16.20;;;;;;;28.77;52.60;98395.28;4930090;29;20035;-81
2021/07/09 11:36:46;;;;;;;19.98;17.73;;;;;;;28.72;52.42;98385.25;4930050;29;20027;-76
2021/07/09 11:39:21;;;;;;;24.25;17.95;;;;;;;28.71;52.87;98380.00;4930791;29;20046;-74
2021/07/09 11:41:58;;;;;;;20.35;18.17;;;;;;;28.69;52.57;98377.63;4929811;29;20530;-77
2021/07/09 11:44:29;;;;;;;24.90;18.50;;;;;;;28.60;52.79;98364.00;4931156;29;20055;-76
2021/07/09 11:46:57;;;;;;;23.33;18.30;;;;;;;28.58;52.98;98371.28;4917748;29;20407;-75
2021/07/09 11:49:32;;;;;;;20.73;18.50;;;;;;;28.51;53.08;98369.38;4936973;29;20038;-76
2021/07/09 11:52:01;;;;;;;25.67;19.10;;;;;;;28.46;53.26;98361.38;4932752;29;20043;-75
2021/07/09 11:54:32;;;;;;;27.17;19.40;;;;;;;28.34;53.64;98363.50;4930041;29;20052;-74
2021/07/09 11:57:01;;;;;;;25.73;19.15;;;;;;;28.26;53.60;98369.63;4938559;29;20052;-75
2021/07/09 11:59:26;;;;;;;;;;;;;;;28.14;53.88;98380.22;4931994;29;20043;-76
2021/07/09 12:02:04;;;;;;;26.23;20.35;;;;;;;27.97;54.10;98378.31;4930920;29;20294;-75
2021/07/09 12:04:31;;;;;;;22.83;19.25;;;;;;;27.85;54.43;98360.72;4931357;29;20027;-75
2021/07/09 12:07:13;;;;;;;18.10;13.98;;;;;;;27.68;54.79;98322.22;4933018;29;20019;-75
2021/07/09 12:09:38;;;;;;;16.83;13.10;;;;;;;27.52;55.01;98331.22;4935849;29;20039;-75
2021/07/09 12:12:04;;;;;;;21.02;12.45;;;;;;;27.37;55.39;98325.66;4933878;29;20404;-75
2021/07/09 12:14:29;;;;;;;17.38;12.00;;;;;;;27.24;55.94;98339.41;4935063;29;20504;-76
2021/07/09 12:16:54;;;;;;;15.75;10.88;;;;;;;27.13;55.90;98322.59;4950191;29;20023;-76